createdAt,value
2019-01-18T00:01:54.733Z,100531.65
2019-01-18T00:04:25.842Z,100541.72
2019-01-18T00:06:55.863Z,100549.22
2019-01-18T00:09:25.955Z,100551.26
2019-01-18T00:11:55.974Z,100555.56
2019-01-18T00:14:26.129Z,100555.93
2019-01-18T00:16:56.164Z,100566.20
2019-01-18T00:19:26.267Z,100558.73
2019-01-18T00:21:56.270Z,100575.73
2019-01-18T00:24:26.328Z,100582.31
2019-01-18T00:26:56.469Z,100585.87
2019-01-18T00:29:29.737Z,100595.46
2019-01-18T00:31:58.085Z,100597.53
2019-01-18T00:34:28.090Z,100610.56
2019-01-18T00:36:58.112Z,100609.91
2019-01-18T00:39:28.165Z,100613.94
2019-01-18T00:41:58.142Z,100618.98
2019-01-18T00:44:28.120Z,100615.33
2019-01-18T00:46:58.120Z,100624.73
2019-01-18T00:49:28.565Z,100623.55
2019-01-18T00:51:59.606Z,100634.84
2019-01-18T00:54:29.566Z,100631.39
2019-01-18T00:56:59.490Z,100644.75
2019-01-18T00:59:29.454Z,100646.42
2019-01-18T01:02:00.325Z,100651.13
2019-01-18T01:04:30.276Z,100665.81
2019-01-18T01:07:00.236Z,100662.10
2019-01-18T01:09:30.156Z,100668.74
2019-01-18T01:12:05.871Z,100679.98
2019-01-18T01:14:36.914Z,100687.27
2019-01-18T01:17:07.231Z,100697.63
2019-01-18T01:19:38.250Z,100705.37
2019-01-18T01:22:08.278Z,100715.81
2019-01-18T01:24:38.280Z,100727.94
2019-01-18T01:27:08.276Z,100732.41
2019-01-18T01:29:43.074Z,100739.63
2019-01-18T01:32:09.982Z,100745.97
2019-01-18T01:34:39.972Z,100750.01
2019-01-18T01:37:09.945Z,100763.00
2019-01-18T01:39:39.998Z,100769.84
2019-01-18T01:42:10.007Z,100781.33
2019-01-18T01:44:40.039Z,100780.27
2019-01-18T01:47:10.023Z,100792.80
2019-01-18T01:49:39.995Z,100789.24
2019-01-18T01:52:09.945Z,100802.28
2019-01-18T01:54:40.195Z,100800.38
2019-01-18T01:57:10.171Z,100813.27
2019-01-18T01:59:40.198Z,100812.02
2019-01-18T02:02:10.249Z,100817.52
2019-01-18T02:04:43.133Z,100821.12
2019-01-18T02:07:13.125Z,100818.20
2019-01-18T02:09:43.113Z,100827.14
2019-01-18T02:12:13.083Z,100831.92
2019-01-18T02:14:43.058Z,100835.83
2019-01-18T02:17:13.008Z,100843.03
2019-01-18T02:19:43.011Z,100851.38
2019-01-18T02:22:12.979Z,100855.61
2019-01-18T02:24:43.960Z,100867.24
2019-01-18T02:27:13.691Z,100880.45
2019-01-18T02:29:43.607Z,100883.66
2019-01-18T02:32:13.375Z,100890.08
2019-01-18T02:34:43.262Z,100900.23
2019-01-18T02:37:13.167Z,100904.57
2019-01-18T02:39:43.060Z,100906.11
2019-01-18T02:42:12.826Z,100918.72
2019-01-18T02:44:42.642Z,100915.97
2019-01-18T02:47:12.564Z,100925.13
2019-01-18T02:49:42.445Z,100923.45
2019-01-18T02:52:12.359Z,100928.13
2019-01-18T02:54:42.168Z,100930.55
2019-01-18T02:57:12.007Z,100928.73
2019-01-18T02:59:41.882Z,100936.22
2019-01-18T03:02:11.625Z,100936.95
2019-01-18T03:04:41.577Z,100946.02
2019-01-18T03:07:11.497Z,100936.95
2019-01-18T03:09:41.311Z,100944.67
2019-01-18T03:12:11.185Z,100953.90
2019-01-18T03:14:41.041Z,100958.78
2019-01-18T03:17:10.944Z,100962.66
2019-01-18T03:19:40.701Z,100961.42
2019-01-18T03:22:10.469Z,100969.31
2019-01-18T03:24:40.429Z,100974.92
2019-01-18T03:27:10.330Z,100981.03
2019-01-18T03:29:40.266Z,100985.71
2019-01-18T03:32:10.041Z,100985.07
2019-01-18T03:34:39.951Z,100989.92
2019-01-18T03:37:09.833Z,100988.98
2019-01-18T03:39:39.664Z,100996.19
2019-01-18T03:42:10.459Z,101006.14
2019-01-18T03:44:40.297Z,101004.27
2019-01-18T03:47:10.189Z,101009.44
2019-01-18T03:49:46.145Z,101013.74
2019-01-18T03:52:15.981Z,101013.96
2019-01-18T03:54:45.837Z,101020.95
2019-01-18T03:57:15.654Z,101020.80
2019-01-18T03:59:45.495Z,101026.09
2019-01-18T04:02:15.335Z,101030.92
2019-01-18T04:04:46.733Z,101035.42
2019-01-18T04:07:16.551Z,101039.58
2019-01-18T04:09:46.459Z,101049.53
2019-01-18T04:12:16.316Z,101048.78
2019-01-18T04:14:46.185Z,101052.65
2019-01-18T04:17:16.019Z,101058.77
2019-01-18T04:19:49.153Z,101061.52
2019-01-18T04:22:22.005Z,101064.02
2019-01-18T04:24:51.823Z,101062.83
2019-01-18T04:27:21.613Z,101064.67
2019-01-18T04:29:52.468Z,101066.84
2019-01-18T04:32:22.670Z,101071.63
2019-01-18T04:34:54.069Z,101080.09
2019-01-18T04:37:24.355Z,101082.27
2019-01-18T04:39:54.153Z,101087.47
2019-01-18T04:42:24.083Z,101089.72
2019-01-18T04:44:59.084Z,101098.33
2019-01-18T04:47:29.780Z,101096.09
2019-01-18T04:50:01.103Z,101101.62
2019-01-18T04:52:30.898Z,101109.55
2019-01-18T04:55:00.721Z,101109.19
2019-01-18T04:57:30.670Z,101110.93
2019-01-18T05:00:03.481Z,101110.86
2019-01-18T05:02:33.714Z,101112.44
2019-01-18T05:05:03.591Z,101109.55
2019-01-18T05:07:33.431Z,101114.81
2019-01-18T05:10:03.380Z,101121.13
2019-01-18T05:12:33.219Z,101121.13
2019-01-18T05:15:07.979Z,101129.05
2019-01-18T05:17:41.214Z,101127.56
2019-01-18T05:20:11.805Z,101137.11
2019-01-18T05:22:43.905Z,101137.11
2019-01-18T05:25:17.149Z,101140.11
2019-01-18T05:27:49.983Z,101144.19
2019-01-18T05:30:22.520Z,101152.67
2019-01-18T05:32:52.809Z,101161.04
2019-01-18T05:35:24.613Z,101169.72
2019-01-18T05:37:54.514Z,101171.45
2019-01-18T05:40:30.742Z,101180.22
2019-01-18T05:43:03.281Z,101174.45
2019-01-18T05:45:33.208Z,101176.91
2019-01-18T05:48:03.048Z,101184.05
2019-01-18T05:50:32.860Z,101187.88
2019-01-18T05:53:05.960Z,101187.84
2019-01-18T05:55:35.867Z,101189.48
2019-01-18T05:58:05.783Z,101189.71
2019-01-18T06:00:39.522Z,101200.77
2019-01-18T06:03:09.484Z,101201.61
2019-01-18T06:05:41.395Z,101211.11
2019-01-18T06:08:11.138Z,101215.02
2019-01-18T06:10:41.044Z,101220.63
2019-01-18T06:13:10.902Z,101215.48
2019-01-18T06:15:40.771Z,101219.15
2019-01-18T06:18:10.905Z,101232.78
2019-01-18T06:20:40.813Z,101236.77
2019-01-18T06:23:10.737Z,101242.54
2019-01-18T06:25:40.650Z,101239.67
2019-01-18T06:28:10.505Z,101255.44
2019-01-18T06:30:40.379Z,101259.25
2019-01-18T06:33:10.310Z,101257.09
2019-01-18T06:35:40.787Z,101262.73
2019-01-18T06:38:10.623Z,101263.78
2019-01-18T06:40:40.569Z,101272.59
2019-01-18T06:43:10.491Z,101276.97
2019-01-18T06:45:40.403Z,101277.23
2019-01-18T06:48:11.959Z,101283.95
2019-01-18T06:50:41.829Z,101285.61
2019-01-18T06:53:11.739Z,101285.30
2019-01-18T06:55:41.767Z,101290.47
2019-01-18T06:58:11.653Z,101288.21
2019-01-18T07:00:41.591Z,101288.30
2019-01-18T07:03:11.469Z,101298.46
2019-01-18T07:05:41.419Z,101296.24
2019-01-18T07:08:11.387Z,101299.67
2019-01-18T07:10:41.349Z,101301.33
2019-01-18T07:13:11.351Z,101304.45
2019-01-18T07:15:41.365Z,101302.80
2019-01-18T07:18:11.301Z,101310.66
2019-01-18T07:20:41.153Z,101311.01
2019-01-18T07:23:11.071Z,101315.30
2019-01-18T07:25:40.881Z,101320.08
2019-01-18T07:28:10.794Z,101326.55
2019-01-18T07:30:42.507Z,101329.24
2019-01-18T07:33:16.890Z,101332.19
2019-01-18T07:35:46.731Z,101334.02
2019-01-18T07:38:16.757Z,101335.41
2019-01-18T07:40:46.795Z,101338.11
2019-01-18T07:43:17.626Z,101341.44
2019-01-18T07:45:47.535Z,101343.70
2019-01-18T07:48:17.491Z,101350.88
2019-01-18T07:50:47.427Z,101360.91
2019-01-18T07:53:17.366Z,101352.95
2019-01-18T07:55:47.381Z,101352.65
2019-01-18T07:58:17.361Z,101349.02
2019-01-18T08:00:47.603Z,101352.23
2019-01-18T08:03:17.669Z,101355.92
2019-01-18T08:05:47.808Z,101352.92
2019-01-18T08:08:17.804Z,101354.73
2019-01-18T08:10:47.767Z,101358.34
2019-01-18T08:13:17.732Z,101361.99
2019-01-18T08:15:47.689Z,101361.81
2019-01-18T08:18:17.765Z,101364.42
2019-01-18T08:20:47.499Z,101372.63
2019-01-18T08:23:17.437Z,101382.67
2019-01-18T08:25:47.284Z,101381.66
2019-01-18T08:28:17.118Z,101389.92
2019-01-18T08:30:46.884Z,101389.30
2019-01-18T08:33:16.818Z,101393.03
2019-01-18T08:35:46.771Z,101391.94
2019-01-18T08:38:16.602Z,101387.59
2019-01-18T08:40:46.920Z,101395.90
2019-01-18T08:43:18.066Z,101395.77
2019-01-18T08:45:59.564Z,101399.30
2019-01-18T08:48:29.410Z,101399.06
2019-01-18T08:50:59.361Z,101400.92
2019-01-18T08:53:29.302Z,101411.64
2019-01-18T08:55:59.268Z,101412.31
2019-01-18T08:58:29.170Z,101410.88
2019-01-18T09:00:59.181Z,101418.23
2019-01-18T09:03:29.080Z,101425.55
2019-01-18T09:05:59.064Z,101427.48
2019-01-18T09:08:28.998Z,101423.28
2019-01-18T09:10:59.008Z,101433.04
2019-01-18T09:13:29.108Z,101431.48
2019-01-18T09:15:59.126Z,101440.81
2019-01-18T09:18:29.122Z,101437.30
2019-01-18T09:20:59.084Z,101438.78
2019-01-18T09:23:29.260Z,101442.27
2019-01-18T09:25:59.210Z,101444.46
2019-01-18T09:28:29.926Z,101447.11
2019-01-18T09:30:59.967Z,101456.87
2019-01-18T09:33:29.920Z,101447.95
2019-01-18T09:36:01.406Z,101452.93
2019-01-18T09:38:31.814Z,101450.27
2019-01-18T09:41:01.734Z,101458.48
2019-01-18T09:43:31.711Z,101454.09
2019-01-18T09:46:01.761Z,101456.63
2019-01-18T09:48:31.620Z,101461.92
2019-01-18T09:51:01.430Z,101464.38
2019-01-18T09:53:31.424Z,101463.17
2019-01-18T09:56:01.369Z,101457.69
2019-01-18T09:58:31.207Z,101464.30
2019-01-18T10:01:01.020Z,101465.06
2019-01-18T10:03:30.834Z,101465.08
2019-01-18T10:06:00.646Z,101460.41
2019-01-18T10:08:30.557Z,101467.21
2019-01-18T10:11:00.308Z,101470.66
2019-01-18T10:13:30.119Z,101473.23
2019-01-18T10:16:00.077Z,101468.87
2019-01-18T10:18:30.029Z,101481.75
2019-01-18T10:20:59.897Z,101480.39
2019-01-18T10:23:29.804Z,101479.33
2019-01-18T10:25:59.654Z,101479.11
2019-01-18T10:28:29.733Z,101486.33
2019-01-18T10:30:59.587Z,101483.94
2019-01-18T10:33:29.532Z,101485.02
2019-01-18T10:35:59.348Z,101481.12
2019-01-18T10:38:29.157Z,101475.77
2019-01-18T10:40:59.009Z,101478.79
2019-01-18T10:43:28.887Z,101474.71
2019-01-18T10:45:58.803Z,101479.52
2019-01-18T10:48:28.611Z,101478.84
2019-01-18T10:50:58.509Z,101486.73
2019-01-18T10:53:28.377Z,101476.16
2019-01-18T10:55:58.422Z,101483.67
2019-01-18T10:58:28.211Z,101481.60
2019-01-18T11:00:58.111Z,101481.38
2019-01-18T11:03:27.940Z,101488.23
2019-01-18T11:05:57.879Z,101486.16
2019-01-18T11:08:27.842Z,101477.67
2019-01-18T11:10:57.823Z,101481.41
2019-01-18T11:13:27.734Z,101480.20
2019-01-18T11:15:57.475Z,101485.13
2019-01-18T11:18:27.591Z,101480.06
2019-01-18T11:21:18.297Z,101480.34
2019-01-18T11:23:48.371Z,101474.53
2019-01-18T11:26:18.287Z,101473.91
2019-01-18T11:28:48.240Z,101473.09
2019-01-18T11:31:18.086Z,101473.73
2019-01-18T11:33:48.469Z,101473.51
2019-01-18T11:36:18.299Z,101469.52
2019-01-18T11:38:48.323Z,101470.67
2019-01-18T11:41:18.535Z,101463.53
2019-01-18T11:43:48.293Z,101466.73
2019-01-18T11:46:18.121Z,101464.30
2019-01-18T11:48:50.352Z,101468.25
2019-01-18T11:51:19.540Z,101470.22
2019-01-18T11:53:49.348Z,101470.68
2019-01-18T11:56:19.167Z,101465.45
2019-01-18T11:58:48.974Z,101462.90
2019-01-18T12:01:18.682Z,101462.25
2019-01-18T12:03:49.658Z,101462.14
2019-01-18T12:06:19.285Z,101466.45
2019-01-18T12:08:49.082Z,101465.98
2019-01-18T12:11:18.966Z,101468.16
2019-01-18T12:13:49.559Z,101471.70
2019-01-18T12:16:19.597Z,101462.90
2019-01-18T12:18:49.510Z,101473.05
2019-01-18T12:21:19.500Z,101469.14
2019-01-18T12:23:49.378Z,101466.72
2019-01-18T12:26:19.441Z,101466.20
2019-01-18T12:28:51.174Z,101467.16
2019-01-18T12:31:20.826Z,101470.52
2019-01-18T12:33:50.592Z,101466.99
2019-01-18T12:36:20.508Z,101471.86
2019-01-18T12:38:50.327Z,101464.61
2019-01-18T12:41:20.154Z,101466.68
2019-01-18T12:43:49.979Z,101468.95
2019-01-18T12:46:19.800Z,101461.27
2019-01-18T12:48:49.705Z,101465.31
2019-01-18T12:51:19.468Z,101470.34
2019-01-18T12:53:49.426Z,101472.58
2019-01-18T12:56:19.270Z,101466.22
2019-01-18T12:58:49.159Z,101462.77
2019-01-18T13:01:18.972Z,101461.88
2019-01-18T13:03:48.798Z,101466.16
2019-01-18T13:06:18.582Z,101462.23
2019-01-18T13:08:48.411Z,101472.27
2019-01-18T13:11:18.303Z,101466.45
2019-01-18T13:13:48.218Z,101467.13
2019-01-18T13:16:25.260Z,101468.39
2019-01-18T13:18:57.952Z,101469.41
2019-01-18T13:21:27.800Z,101464.38
2019-01-18T13:23:57.720Z,101467.27
2019-01-18T13:26:28.728Z,101463.42
2019-01-18T13:28:58.621Z,101468.09
2019-01-18T13:31:28.432Z,101464.32
2019-01-18T13:33:58.308Z,101470.61
2019-01-18T13:36:28.129Z,101467.86
2019-01-18T13:38:58.760Z,101471.86
2019-01-18T13:41:28.609Z,101470.59
2019-01-18T13:43:58.525Z,101473.17
2019-01-18T13:46:28.471Z,101471.73
2019-01-18T13:48:58.427Z,101479.03
2019-01-18T13:51:28.375Z,101475.75
2019-01-18T13:53:58.277Z,101474.22
2019-01-18T13:56:28.397Z,101477.14
2019-01-18T13:58:58.326Z,101482.80
2019-01-18T14:01:28.090Z,101479.99
2019-01-18T14:03:57.919Z,101478.82
2019-01-18T14:06:29.461Z,101484.95
2019-01-18T14:08:59.343Z,101490.70
2019-01-18T14:11:29.096Z,101486.88
2019-01-18T14:13:58.943Z,101490.53
2019-01-18T14:16:28.855Z,101493.60
2019-01-18T14:19:01.056Z,101489.84
2019-01-18T14:21:32.127Z,101488.21
2019-01-18T14:24:02.084Z,101487.02
2019-01-18T14:26:32.004Z,101488.70
2019-01-18T14:29:01.835Z,101487.38
2019-01-18T14:31:31.585Z,101498.36
2019-01-18T14:34:01.542Z,101491.77
2019-01-18T14:36:31.453Z,101499.24
2019-01-18T14:39:01.347Z,101500.95
2019-01-18T14:41:32.779Z,101506.54
2019-01-18T14:44:03.150Z,101509.59
2019-01-18T14:46:33.049Z,101506.54
2019-01-18T14:49:02.959Z,101504.47
2019-01-18T14:51:32.883Z,101510.31
2019-01-18T14:54:02.689Z,101508.37
2019-01-18T14:56:32.569Z,101508.70
2019-01-18T14:59:03.383Z,101504.97
2019-01-18T15:01:33.288Z,101510.42
2019-01-18T15:04:03.243Z,101513.72
2019-01-18T15:06:33.132Z,101521.03
2019-01-18T15:09:04.723Z,101522.77
2019-01-18T15:11:36.232Z,101526.57
2019-01-18T15:14:06.219Z,101521.97
2019-01-18T15:16:36.077Z,101517.26
2019-01-18T15:19:05.915Z,101517.06
2019-01-18T15:21:35.826Z,101520.02
2019-01-18T15:24:05.774Z,101525.99
2019-01-18T15:26:35.614Z,101520.45
2019-01-18T15:29:05.512Z,101523.42
2019-01-18T15:31:35.551Z,101528.53
2019-01-18T15:34:05.442Z,101524.45
2019-01-18T15:36:35.402Z,101528.36
2019-01-18T15:39:09.430Z,101528.83
2019-01-18T15:41:39.552Z,101529.20
2019-01-18T15:44:09.960Z,101526.15
2019-01-18T15:46:39.778Z,101536.10
2019-01-18T15:49:09.694Z,101533.83
2019-01-18T15:51:39.656Z,101531.53
2019-01-18T15:54:09.560Z,101533.34
2019-01-18T15:56:39.521Z,101543.61
2019-01-18T15:59:09.391Z,101539.36
2019-01-18T16:01:39.312Z,101543.84
2019-01-18T16:04:09.276Z,101544.91
2019-01-18T16:06:41.287Z,101541.62
2019-01-18T16:09:11.206Z,101543.03
2019-01-18T16:11:41.239Z,101543.25
2019-01-18T16:14:11.312Z,101543.77
2019-01-18T16:16:45.890Z,101549.88
2019-01-18T16:19:15.746Z,101547.31
2019-01-18T16:21:45.493Z,101543.73
2019-01-18T16:24:15.745Z,101540.16
2019-01-18T16:26:45.643Z,101546.61
2019-01-18T16:29:15.674Z,101555.59
2019-01-18T16:31:45.533Z,101550.81
2019-01-18T16:34:15.452Z,101552.08
2019-01-18T16:36:45.496Z,101550.16
2019-01-18T16:39:15.372Z,101549.89
2019-01-18T16:41:45.257Z,101550.92
2019-01-18T16:44:15.121Z,101541.86
2019-01-18T16:46:45.050Z,101543.20
2019-01-18T16:49:14.922Z,101542.41
2019-01-18T16:51:46.476Z,101548.55
2019-01-18T16:54:16.276Z,101542.43
2019-01-18T16:56:46.209Z,101545.57
2019-01-18T16:59:16.090Z,101547.23
2019-01-18T17:01:46.045Z,101548.91
2019-01-18T17:04:16.145Z,101551.63
2019-01-18T17:06:46.114Z,101549.02
2019-01-18T17:09:16.044Z,101552.56
2019-01-18T17:11:46.033Z,101549.50
2019-01-18T17:14:15.903Z,101547.37
2019-01-18T17:16:45.886Z,101547.75
2019-01-18T17:19:15.797Z,101549.86
2019-01-18T17:21:45.779Z,101552.37
2019-01-18T17:24:15.738Z,101547.48
2019-01-18T17:26:45.708Z,101553.80
2019-01-18T17:29:15.595Z,101549.09
2019-01-18T17:31:45.557Z,101550.41
2019-01-18T17:34:15.412Z,101550.70
2019-01-18T17:37:07.700Z,101553.56
2019-01-18T17:40:08.718Z,101554.36
2019-01-18T17:43:24.489Z,101562.83
2019-01-18T17:46:35.663Z,101557.17
2019-01-18T17:49:34.422Z,101563.88
2019-01-18T17:52:38.797Z,101565.09
2019-01-18T17:55:47.565Z,101566.50
2019-01-18T17:59:13.203Z,101565.62
2019-01-18T18:01:57.371Z,101569.52
2019-01-18T18:05:11.607Z,101571.07
2019-01-18T18:08:07.451Z,101572.35
2019-01-18T18:11:05.737Z,101578.67
2019-01-18T18:14:18.572Z,101578.30
2019-01-18T18:17:44.902Z,101578.40
2019-01-18T18:20:43.563Z,101580.53
2019-01-18T18:23:28.984Z,101579.13
2019-01-18T18:26:48.557Z,101592.77
2019-01-18T18:29:52.518Z,101591.66
2019-01-18T18:33:20.117Z,101589.87
2019-01-18T18:36:30.316Z,101589.95
2019-01-18T18:39:15.676Z,101596.73
2019-01-18T18:42:32.919Z,101592.62
2019-01-18T18:45:55.200Z,101593.67
2019-01-18T18:49:03.451Z,101593.88
2019-01-18T18:52:09.267Z,101594.20
2019-01-18T18:55:26.459Z,101601.97
2019-01-18T18:58:36.480Z,101600.95
2019-01-18T19:01:45.585Z,101599.61
2019-01-18T19:04:53.096Z,101600.69
2019-01-18T19:07:49.386Z,101600.63
2019-01-18T19:10:36.840Z,101599.08
2019-01-18T19:13:41.630Z,101601.23
2019-01-18T19:16:29.068Z,101601.53
2019-01-18T19:19:32.150Z,101597.17
2019-01-18T19:22:39.594Z,101597.17
2019-01-18T19:25:55.718Z,101596.87
2019-01-18T19:28:52.880Z,101598.43
2019-01-18T19:32:00.136Z,101597.93
2019-01-18T19:34:47.566Z,101598.30
2019-01-18T19:37:57.030Z,101598.45
2019-01-18T19:41:07.350Z,101599.33
2019-01-18T19:44:17.572Z,101597.68
2019-01-18T19:47:16.259Z,101593.09
2019-01-18T19:50:23.324Z,101596.71
2019-01-18T19:53:10.122Z,101594.91
2019-01-18T19:56:42.352Z,101602.66
2019-01-18T20:00:04.601Z,101601.97
2019-01-18T20:03:30.137Z,101606.56
2019-01-18T20:06:14.951Z,101609.05
2019-01-18T20:09:16.290Z,101606.45
2019-01-18T20:12:54.928Z,101616.82
2019-01-18T20:15:52.959Z,101614.09
2019-01-18T20:19:08.996Z,101616.90
2019-01-18T20:22:16.558Z,101621.59
2019-01-18T20:25:30.547Z,101622.06
2019-01-18T20:28:12.039Z,101627.22
2019-01-18T20:31:23.377Z,101627.15
2019-01-18T20:34:55.769Z,101630.16
2019-01-18T20:38:02.844Z,101633.24
2019-01-18T20:41:17.275Z,101631.17
2019-01-18T20:44:46.800Z,101633.68
2019-01-18T20:47:45.448Z,101639.70
2019-01-18T20:50:52.289Z,101642.05
2019-01-18T20:53:50.641Z,101642.26
2019-01-18T20:57:04.713Z,101645.78
2019-01-18T21:00:02.795Z,101644.88
2019-01-18T21:02:46.670Z,101648.12
2019-01-18T21:05:45.870Z,101647.25
2019-01-18T21:08:52.745Z,101643.69
2019-01-18T21:11:49.263Z,101644.52
2019-01-18T21:14:47.032Z,101643.61
2019-01-18T21:17:47.824Z,101641.91
2019-01-18T21:20:37.328Z,101644.08
2019-01-18T21:24:03.905Z,101649.39
2019-01-18T21:27:16.611Z,101657.08
2019-01-18T21:30:15.703Z,101658.26
2019-01-18T21:33:09.461Z,101655.66
2019-01-18T21:36:31.560Z,101654.22
2019-01-18T21:39:13.861Z,101654.22
2019-01-18T21:42:17.517Z,101653.42
2019-01-18T21:45:47.149Z,101653.17
2019-01-18T21:49:00.217Z,101656.63
2019-01-18T21:52:13.425Z,101648.77
2019-01-18T21:55:01.012Z,101649.20
2019-01-18T21:58:15.185Z,101645.34
2019-01-18T22:01:28.414Z,101643.93
2019-01-18T22:04:06.229Z,101648.23
2019-01-18T22:07:10.025Z,101651.84
2019-01-18T22:10:30.037Z,101652.55
2019-01-18T22:13:14.879Z,101653.31
2019-01-18T22:16:10.323Z,101657.94
2019-01-18T22:19:20.817Z,101658.09
2019-01-18T22:22:32.282Z,101663.39
2019-01-18T22:25:34.289Z,101665.66
2019-01-18T22:28:19.489Z,101663.79
2019-01-18T22:31:22.739Z,101666.46
2019-01-18T22:34:18.684Z,101665.59
2019-01-18T22:37:29.873Z,101668.06
2019-01-18T22:40:44.355Z,101662.37
2019-01-18T22:43:59.815Z,101672.03
2019-01-18T22:47:16.097Z,101675.50
2019-01-18T22:50:07.346Z,101676.76
2019-01-18T22:53:30.565Z,101673.27
2019-01-18T22:56:29.673Z,101675.15
2019-01-18T22:59:31.615Z,101680.33
2019-01-18T23:02:51.390Z,101668.93
2019-01-18T23:06:08.916Z,101672.80
2019-01-18T23:09:10.467Z,101671.52
2019-01-18T23:12:07.185Z,101671.47
2019-01-18T23:15:33.573Z,101675.20
2019-01-18T23:18:18.370Z,101674.88
2019-01-18T23:21:40.819Z,101674.78
2019-01-18T23:24:16.080Z,101670.05
2019-01-18T23:27:29.498Z,101669.38
2019-01-18T23:30:26.073Z,101668.99
2019-01-18T23:33:49.519Z,101672.81
2019-01-18T23:36:31.409Z,101676.25
2019-01-18T23:39:36.450Z,101671.13
2019-01-18T23:42:32.098Z,101674.55
2019-01-18T23:45:39.013Z,101667.34
2019-01-18T23:49:00.250Z,101667.59
2019-01-18T23:52:08.189Z,101666.19
2019-01-18T23:55:19.017Z,101669.67
2019-01-18T23:58:22.410Z,101662.67
